Time;durP1;ratioP1;P1;durP2;ratioP2;P2;SDS_P1;SDS_P2;PMS_P1;PMS_P2;Temp;Humidity;BMP_temperature;BMP_pressure;BME280_temperature;BME280_humidity;BME280_pressure;Samples;Min_cycle;Max_cycle;Signal;HPM_P1;HPM_P2
2021/03/21 00:01:04;;;;;;;29.65;22.88;;;;;;;;;;4974079;28;20295;-79
2021/03/21 00:03:30;;;;;;;30.33;23.02;;;;;;;;;;4974118;28;20214;-80
2021/03/21 00:05:57;;;;;;;29.27;24.55;;;;;;;;;;4956449;28;20200;-79
2021/03/21 00:08:25;;;;;;;33.88;23.77;;;;;;;;;;4974112;28;20235;-79
2021/03/21 00:10:53;;;;;;;31.65;23.25;;;;;;;;;;4973601;28;20272;-79
2021/03/21 00:13:19;;;;;;;29.98;23.15;;;;;;;;;;4972697;28;20182;-79
2021/03/21 00:15:45;;;;;;;36.53;25.83;;;;;;;;;;4973692;28;20204;-80
2021/03/21 00:18:12;;;;;;;35.05;25.52;;;;;;;;;;4973955;28;20207;-80
2021/03/21 00:20:38;;;;;;;31.48;25.20;;;;;;;;;;4974008;28;20184;-79
2021/03/21 00:23:05;;;;;;;33.28;24.77;;;;;;;;;;4972641;28;20238;-80
2021/03/21 00:25:32;;;;;;;31.95;23.42;;;;;;;;;;4973354;28;20540;-80
2021/03/21 00:27:59;;;;;;;34.38;24.48;;;;;;;;;;4974103;28;20179;-79
2021/03/21 00:30:27;;;;;;;31.08;21.80;;;;;;;;;;4973838;28;20545;-80
2021/03/21 00:32:53;;;;;;;31.70;24.55;;;;;;;;;;4973937;28;20188;-79
2021/03/21 00:35:19;;;;;;;36.10;25.30;;;;;;;;;;4973616;28;20197;-79
2021/03/21 00:37:45;;;;;;;34.40;23.40;;;;;;;;;;4974000;28;20176;-79
2021/03/21 00:40:13;;;;;;;28.10;20.10;;;;;;;;;;4973745;28;20172;-79
2021/03/21 00:42:39;;;;;;;28.38;20.67;;;;;;;;;;4973882;28;20203;-79
2021/03/21 00:45:06;;;;;;;26.83;19.08;;;;;;;;;;4973268;28;20669;-80
2021/03/21 00:47:33;;;;;;;28.80;20.13;;;;;;;;;;4974938;28;20223;-79
2021/03/21 00:49:59;;;;;;;27.00;19.63;;;;;;;;;;4976296;28;20186;-80
2021/03/21 00:52:25;;;;;;;24.47;20.00;;;;;;;;;;4977434;28;20618;-80
2021/03/21 00:54:51;;;;;;;24.43;19.27;;;;;;;;;;4977078;28;20420;-79
2021/03/21 00:57:17;;;;;;;25.40;18.38;;;;;;;;;;4976059;28;20410;-79
2021/03/21 00:59:43;;;;;;;27.43;17.40;;;;;;;;;;4977613;28;20343;-79
2021/03/21 01:02:10;;;;;;;24.43;18.20;;;;;;;;;;4977375;28;20415;-79
2021/03/21 01:04:36;;;;;;;23.15;14.88;;;;;;;;;;4976998;28;20781;-79
2021/03/21 01:07:02;;;;;;;21.53;15.73;;;;;;;;;;4977468;28;20218;-79
2021/03/21 01:09:28;;;;;;;22.50;14.45;;;;;;;;;;4977054;28;20465;-79
2021/03/21 01:11:54;;;;;;;19.00;13.90;;;;;;;;;;4977132;28;20218;-78
2021/03/21 01:14:19;;;;;;;21.52;14.80;;;;;;;;;;4977027;28;20453;-79
2021/03/21 01:16:46;;;;;;;20.83;14.40;;;;;;;;;;4976725;28;20233;-80
2021/03/21 01:19:17;;;;;;;20.30;15.70;;;;;;;;;;4977122;28;20418;-78
2021/03/21 01:21:44;;;;;;;22.83;16.40;;;;;;;;;;4976903;28;20207;-80
2021/03/21 01:24:14;;;;;;;23.00;15.70;;;;;;;;;;4975708;28;20194;-80
2021/03/21 01:26:41;;;;;;;23.73;16.40;;;;;;;;;;4975149;28;20196;-79
2021/03/21 01:29:07;;;;;;;26.42;16.75;;;;;;;;;;4976587;28;20188;-78
2021/03/21 01:31:33;;;;;;;22.92;15.35;;;;;;;;;;4976625;28;20665;-78
2021/03/21 01:33:59;;;;;;;22.20;14.60;;;;;;;;;;4976816;28;20596;-79
2021/03/21 01:36:29;;;;;;;22.87;16.93;;;;;;;;;;4976221;28;20212;-78
2021/03/21 01:38:57;;;;;;;21.92;15.68;;;;;;;;;;4975294;28;20511;-78
2021/03/21 01:41:33;;;;;;;28.73;16.75;;;;;;;;;;4976493;28;20196;-78
2021/03/21 01:44:00;;;;;;;27.45;18.38;;;;;;;;;;4976711;28;20187;-78
2021/03/21 01:46:35;;;;;;;25.33;17.75;;;;;;;;;;4976028;28;20228;-78
2021/03/21 01:49:02;;;;;;;20.70;15.00;;;;;;;;;;4976386;28;20176;-78
2021/03/21 01:51:33;;;;;;;25.80;17.15;;;;;;;;;;4976074;28;20200;-78
2021/03/21 01:54:02;;;;;;;26.38;17.95;;;;;;;;;;4976343;28;20182;-78
2021/03/21 01:56:28;;;;;;;25.90;18.83;;;;;;;;;;4975889;28;20202;-77
2021/03/21 01:59:13;;;;;;;24.35;17.90;;;;;;;;;;4976177;28;20180;-77
2021/03/21 02:01:40;;;;;;;26.70;18.90;;;;;;;;;;4975891;28;20238;-76
2021/03/21 02:04:06;;;;;;;28.55;19.02;;;;;;;;;;4976085;28;20507;-77
2021/03/21 02:06:35;;;;;;;25.70;16.95;;;;;;;;;;4975639;28;20204;-77
2021/03/21 02:09:08;;;;;;;22.92;16.98;;;;;;;;;;4976080;28;20258;-78
2021/03/21 02:11:37;;;;;;;24.02;16.80;;;;;;;;;;4975760;28;20220;-78
2021/03/21 02:14:16;;;;;;;24.92;15.70;;;;;;;;;;4975902;28;20172;-78
2021/03/21 02:16:53;;;;;;;24.95;16.60;;;;;;;;;;4975420;28;20207;-76
2021/03/21 02:19:22;;;;;;;24.40;17.30;;;;;;;;;;4974815;28;20185;-77
2021/03/21 02:21:54;;;;;;;23.13;16.48;;;;;;;;;;4975693;28;20173;-78
2021/03/21 02:24:20;;;;;;;23.88;16.65;;;;;;;;;;4975989;28;20176;-78
2021/03/21 02:26:52;;;;;;;20.70;16.50;;;;;;;;;;4975267;28;20203;-77
2021/03/21 02:29:18;;;;;;;22.80;17.00;;;;;;;;;;4975646;28;20425;-77
2021/03/21 02:31:49;;;;;;;21.20;17.03;;;;;;;;;;4974218;28;20250;-78
2021/03/21 02:34:21;;;;;;;23.17;17.02;;;;;;;;;;4974414;28;20478;-77
2021/03/21 02:36:50;;;;;;;22.63;16.30;;;;;;;;;;4975057;28;20208;-78
2021/03/21 02:39:31;;;;;;;23.13;16.60;;;;;;;;;;4975429;28;20173;-76
2021/03/21 02:42:00;;;;;;;20.73;15.25;;;;;;;;;;4975249;28;20180;-78
2021/03/21 02:44:29;;;;;;;20.17;14.45;;;;;;;;;;4975404;28;20184;-78
2021/03/21 02:47:04;;;;;;;27.63;16.63;;;;;;;;;;4975262;28;20196;-78
2021/03/21 02:49:36;;;;;;;28.52;17.58;;;;;;;;;;4975234;28;20266;-76
2021/03/21 02:52:10;;;;;;;24.10;15.60;;;;;;;;;;4975027;28;20218;-77
2021/03/21 02:54:42;;;;;;;22.65;15.35;;;;;;;;;;4974806;28;20239;-78
2021/03/21 02:57:11;;;;;;;25.70;15.85;;;;;;;;;;4973702;28;20297;-77
2021/03/21 02:59:38;;;;;;;22.20;16.38;;;;;;;;;;4975061;28;20165;-77
2021/03/21 03:02:09;;;;;;;32.38;18.17;;;;;;;;;;4974608;28;20216;-78
2021/03/21 03:04:41;;;;;;;26.20;16.65;;;;;;;;;;4973379;28;20545;-77
2021/03/21 03:07:19;;;;;;;24.58;16.17;;;;;;;;;;4974918;28;20187;-77
2021/03/21 03:09:49;;;;;;;29.27;17.83;;;;;;;;;;4974805;28;20177;-78
2021/03/21 03:12:21;;;;;;;27.70;16.92;;;;;;;;;;4973427;28;20202;-77
2021/03/21 03:14:48;;;;;;;26.83;18.13;;;;;;;;;;4973454;28;20272;-77
2021/03/21 03:17:32;;;;;;;27.85;18.13;;;;;;;;;;4976812;28;20194;-77
2021/03/21 03:20:01;;;;;;;28.98;18.90;;;;;;;;;;4975550;28;20178;-76
2021/03/21 03:22:33;;;;;;;26.05;19.10;;;;;;;;;;4974922;28;20181;-77
2021/03/21 03:25:17;;;;;;;25.45;17.60;;;;;;;;;;4974401;28;20199;-78
2021/03/21 03:28:09;;;;;;;23.58;16.60;;;;;;;;;;4974639;28;20183;-77
2021/03/21 03:30:58;;;;;;;24.70;17.35;;;;;;;;;;4959231;28;20206;-77
2021/03/21 03:33:25;;;;;;;26.98;17.00;;;;;;;;;;4969103;28;20201;-78
2021/03/21 03:35:51;;;;;;;26.70;16.30;;;;;;;;;;4974072;28;20327;-78
2021/03/21 03:38:17;;;;;;;26.55;16.40;;;;;;;;;;4974362;28;20180;-78
2021/03/21 03:40:44;;;;;;;28.90;18.10;;;;;;;;;;4974203;28;20180;-79
2021/03/21 03:43:19;;;;;;;26.08;18.77;;;;;;;;;;4974431;28;20180;-77
2021/03/21 03:45:51;;;;;;;24.98;17.08;;;;;;;;;;4973917;28;20248;-77
2021/03/21 03:48:29;;;;;;;24.08;17.05;;;;;;;;;;4974110;28;20183;-78
2021/03/21 03:50:58;;;;;;;27.88;17.80;;;;;;;;;;4973842;28;20558;-79
2021/03/21 03:53:27;;;;;;;28.58;18.10;;;;;;;;;;4974151;28;20267;-78
2021/03/21 03:56:02;;;;;;;29.30;17.58;;;;;;;;;;4973777;28;20204;-77
2021/03/21 03:58:32;;;;;;;23.83;15.10;;;;;;;;;;4973923;28;20172;-78
2021/03/21 04:01:02;;;;;;;25.88;17.05;;;;;;;;;;4972814;28;20184;-77
2021/03/21 04:03:36;;;;;;;26.75;16.48;;;;;;;;;;4973992;28;20176;-78
2021/03/21 04:06:09;;;;;;;21.25;13.52;;;;;;;;;;4973716;28;20246;-78
2021/03/21 04:08:40;;;;;;;27.65;16.08;;;;;;;;;;4973843;28;20203;-77
2021/03/21 04:11:12;;;;;;;22.73;14.98;;;;;;;;;;4974115;28;20217;-79
2021/03/21 04:13:42;;;;;;;24.85;16.13;;;;;;;;;;4973802;28;20233;-77
2021/03/21 04:16:10;;;;;;;25.75;15.48;;;;;;;;;;4973646;28;20199;-77
2021/03/21 04:18:39;;;;;;;23.48;16.60;;;;;;;;;;4977203;28;20626;-77
2021/03/21 04:21:12;;;;;;;25.42;17.02;;;;;;;;;;4973844;28;20199;-76
2021/03/21 04:23:50;;;;;;;31.08;17.48;;;;;;;;;;4977017;28;20180;-77
2021/03/21 04:26:18;;;;;;;24.88;17.02;;;;;;;;;;4977523;28;20616;-78
2021/03/21 04:28:44;;;;;;;26.67;17.38;;;;;;;;;;4976461;28;20210;-75
2021/03/21 04:31:12;;;;;;;27.17;16.47;;;;;;;;;;4977709;28;20196;-78
2021/03/21 04:33:41;;;;;;;24.75;15.77;;;;;;;;;;4977770;28;20562;-77
2021/03/21 04:36:10;;;;;;;29.60;17.88;;;;;;;;;;4977375;28;20204;-77
2021/03/21 04:38:36;;;;;;;26.63;17.58;;;;;;;;;;4977529;28;20254;-76
2021/03/21 04:41:03;;;;;;;29.80;17.07;;;;;;;;;;4977591;28;20267;-76
2021/03/21 04:43:29;;;;;;;30.25;18.25;;;;;;;;;;4977573;28;20415;-77
2021/03/21 04:45:57;;;;;;;31.33;18.23;;;;;;;;;;4975795;28;20222;-77
2021/03/21 04:48:26;;;;;;;32.38;17.90;;;;;;;;;;4977321;28;20412;-76
2021/03/21 04:51:03;;;;;;;32.67;17.48;;;;;;;;;;4977068;28;20223;-76
2021/03/21 04:53:37;;;;;;;32.17;19.65;;;;;;;;;;4977534;28;20174;-78
2021/03/21 04:56:05;;;;;;;35.28;20.83;;;;;;;;;;4976988;28;20189;-77
2021/03/21 04:58:31;;;;;;;34.10;16.95;;;;;;;;;;4977338;28;20598;-76
2021/03/21 05:01:02;;;;;;;36.83;21.98;;;;;;;;;;4977070;28;20168;-77
2021/03/21 05:03:39;;;;;;;33.80;18.25;;;;;;;;;;4977340;28;20196;-75
2021/03/21 05:06:16;;;;;;;26.20;14.15;;;;;;;;;;4976743;28;20279;-77
2021/03/21 05:08:46;;;;;;;35.40;17.45;;;;;;;;;;4977255;28;20175;-76
2021/03/21 05:11:13;;;;;;;40.72;20.75;;;;;;;;;;4976923;28;20202;-78
2021/03/21 05:13:45;;;;;;;42.85;20.40;;;;;;;;;;4977201;28;20180;-78
2021/03/21 05:16:17;;;;;;;35.63;19.95;;;;;;;;;;4976642;28;20254;-77
2021/03/21 05:18:48;;;;;;;37.58;19.63;;;;;;;;;;4977103;28;20199;-77
2021/03/21 05:21:18;;;;;;;39.78;20.48;;;;;;;;;;4976816;28;20226;-76
2021/03/21 05:24:10;;;;;;;41.38;20.00;;;;;;;;;;4975671;28;20242;-77
2021/03/21 05:26:55;;;;;;;35.53;16.50;;;;;;;;;;4974350;28;20628;-77
2021/03/21 05:29:40;;;;;;;44.05;20.63;;;;;;;;;;4976685;28;20258;-77
2021/03/21 05:32:06;;;;;;;42.65;19.70;;;;;;;;;;4976596;28;20204;-76
2021/03/21 05:34:33;;;;;;;37.58;21.08;;;;;;;;;;4975951;28;20267;-77
2021/03/21 05:36:59;;;;;;;38.67;21.33;;;;;;;;;;4976429;28;20627;-77
2021/03/21 05:39:32;;;;;;;46.50;20.10;;;;;;;;;;4975274;28;20187;-77
2021/03/21 05:42:17;;;;;;;47.95;22.70;;;;;;;;;;4976718;28;20445;-76
2021/03/21 05:45:04;;;;;;;39.47;22.05;;;;;;;;;;4976275;28;20232;-78
2021/03/21 05:47:48;;;;;;;48.53;23.25;;;;;;;;;;4975259;28;20160;-78
2021/03/21 05:50:33;;;;;;;48.55;24.45;;;;;;;;;;4976469;28;20180;-76
2021/03/21 05:53:28;;;;;;;43.50;21.92;;;;;;;;;;4976366;28;20587;-77
2021/03/21 05:56:13;;;;;;;52.00;22.60;;;;;;;;;;4940220;28;20214;-77
2021/03/21 05:59:14;;;;;;;47.17;22.55;;;;;;;;;;4976281;28;20172;-76
2021/03/21 06:01:59;;;;;;;50.40;22.92;;;;;;;;;;4935607;29;20188;-77
2021/03/21 06:04:43;;;;;;;54.42;24.48;;;;;;;;;;4973036;28;20196;-76
2021/03/21 06:07:09;;;;;;;46.45;26.33;;;;;;;;;;4976000;28;20182;-77
2021/03/21 06:09:41;;;;;;;48.33;23.97;;;;;;;;;;4975900;28;20531;-77
2021/03/21 06:12:26;;;;;;;49.08;25.08;;;;;;;;;;4976135;28;20558;-75
2021/03/21 06:15:10;;;;;;;58.85;23.75;;;;;;;;;;4975551;28;20176;-76
2021/03/21 06:17:55;;;;;;;54.95;24.13;;;;;;;;;;4975750;28;20200;-77
2021/03/21 06:20:21;;;;;;;48.88;23.67;;;;;;;;;;4975885;28;20279;-75
2021/03/21 06:23:01;;;;;;;50.67;27.17;;;;;;;;;;4975790;28;20180;-77
2021/03/21 06:25:27;;;;;;;47.67;21.85;;;;;;;;;;4975316;28;20195;-77
2021/03/21 06:28:11;;;;;;;48.00;24.33;;;;;;;;;;4975641;28;20243;-78
2021/03/21 06:30:46;;;;;;;56.15;25.00;;;;;;;;;;4975543;28;20468;-78
2021/03/21 06:33:15;;;;;;;49.75;24.90;;;;;;;;;;4975782;28;20180;-77
2021/03/21 06:36:00;;;;;;;49.65;25.55;;;;;;;;;;4975071;28;20217;-77
2021/03/21 06:38:44;;;;;;;51.28;22.55;;;;;;;;;;4975638;28;20557;-78
2021/03/21 06:41:36;;;;;;;44.30;21.52;;;;;;;;;;4975853;28;20184;-77
2021/03/21 06:44:21;;;;;;;51.38;24.17;;;;;;;;;;4973391;28;20253;-77
2021/03/21 06:46:50;;;;;;;49.00;26.55;;;;;;;;;;4974545;28;20571;-77
2021/03/21 06:49:25;;;;;;;52.33;23.40;;;;;;;;;;4975273;28;20183;-77
2021/03/21 06:52:11;;;;;;;53.40;25.98;;;;;;;;;;4975103;28;20301;-78
2021/03/21 06:54:48;;;;;;;47.33;22.73;;;;;;;;;;4973442;28;20207;-76
2021/03/21 06:57:20;;;;;;;47.95;25.50;;;;;;;;;;4975383;28;20176;-75
2021/03/21 07:00:11;;;;;;;47.22;23.25;;;;;;;;;;4973730;28;20298;-77
2021/03/21 07:02:56;;;;;;;42.28;23.00;;;;;;;;;;4974573;28;20181;-79
2021/03/21 07:05:41;;;;;;;44.80;19.92;;;;;;;;;;4974447;28;20626;-78
2021/03/21 07:08:20;;;;;;;44.85;21.83;;;;;;;;;;4975010;28;20182;-77
2021/03/21 07:11:01;;;;;;;58.72;27.55;;;;;;;;;;4974972;28;20187;-77
2021/03/21 07:13:27;;;;;;;51.85;25.38;;;;;;;;;;4974841;28;20178;-77
2021/03/21 07:16:05;;;;;;;50.20;24.67;;;;;;;;;;4974311;28;20721;-78
2021/03/21 07:18:37;;;;;;;53.47;26.83;;;;;;;;;;4974679;28;20412;-76
2021/03/21 07:21:14;;;;;;;51.03;25.25;;;;;;;;;;4973584;28;20188;-77
2021/03/21 07:23:56;;;;;;;57.45;26.45;;;;;;;;;;4974817;28;20191;-78
2021/03/21 07:26:31;;;;;;;54.47;26.85;;;;;;;;;;4974419;28;20199;-77
2021/03/21 07:29:05;;;;;;;46.30;25.80;;;;;;;;;;4973596;28;20176;-78
2021/03/21 07:31:31;;;;;;;47.17;25.85;;;;;;;;;;4973183;28;20213;-76
2021/03/21 07:33:57;;;;;;;46.20;25.10;;;;;;;;;;4974313;28;20253;-75
2021/03/21 07:36:42;;;;;;;51.63;23.90;;;;;;;;;;4974049;28;20443;-77
2021/03/21 07:39:17;;;;;;;48.55;26.15;;;;;;;;;;4974408;28;20922;-77
2021/03/21 07:41:46;;;;;;;44.63;24.17;;;;;;;;;;4974693;28;20231;-78
2021/03/21 07:44:19;;;;;;;42.63;25.00;;;;;;;;;;4974274;28;20183;-77
2021/03/21 07:46:48;;;;;;;36.10;22.50;;;;;;;;;;4974037;28;20196;-78
2021/03/21 07:49:20;;;;;;;26.83;14.52;;;;;;;;;;4974376;28;20255;-78
2021/03/21 07:51:55;;;;;;;35.72;23.25;;;;;;;;;;4974077;28;20203;-79
2021/03/21 07:54:24;;;;;;;39.00;20.77;;;;;;;;;;4972802;28;20222;-79
2021/03/21 07:56:53;;;;;;;38.45;21.50;;;;;;;;;;4973756;28;20201;-79
2021/03/21 07:59:22;;;;;;;37.30;21.45;;;;;;;;;;4972885;28;20175;-78
2021/03/21 08:01:48;;;;;;;27.27;17.20;;;;;;;;;;4974067;28;20671;-80
2021/03/21 08:04:29;;;;;;;21.63;12.25;;;;;;;;;;4973936;28;20184;-80
2021/03/21 08:07:00;;;;;;;27.10;17.27;;;;;;;;;;4973898;28;20187;-79
2021/03/21 08:09:29;;;;;;;27.10;16.75;;;;;;;;;;4974076;28;20172;-79
2021/03/21 08:12:01;;;;;;;24.20;15.10;;;;;;;;;;4973924;28;20218;-80
2021/03/21 08:14:29;;;;;;;16.30;11.80;;;;;;;;;;4973870;28;20180;-79
2021/03/21 08:16:56;;;;;;;17.90;12.23;;;;;;;;;;4973771;28;20192;-79
2021/03/21 08:19:25;;;;;;;20.33;12.88;;;;;;;;;;4973895;28;20196;-79
2021/03/21 08:21:51;;;;;;;22.20;14.50;;;;;;;;;;4973963;28;20186;-80
2021/03/21 08:24:20;;;;;;;18.80;11.68;;;;;;;;;;4973843;28;20263;-79
2021/03/21 08:26:46;;;;;;;25.42;11.35;;;;;;;;;;4973655;28;20195;-80
2021/03/21 08:29:14;;;;;;;17.63;11.80;;;;;;;;;;4973859;28;20180;-79
2021/03/21 08:31:44;;;;;;;18.35;12.95;;;;;;;;;;4973690;28;20543;-80
2021/03/21 08:34:25;;;;;;;17.90;11.98;;;;;;;;;;4973854;28;20535;-80
2021/03/21 08:36:51;;;;;;;17.23;8.25;;;;;;;;;;4973274;28;20251;-80
2021/03/21 08:39:27;;;;;;;12.85;8.15;;;;;;;;;;4972451;28;20246;-79
2021/03/21 08:41:55;;;;;;;17.88;8.77;;;;;;;;;;4973589;28;20917;-80
2021/03/21 08:44:27;;;;;;;12.73;7.35;;;;;;;;;;4973728;28;20186;-79
2021/03/21 08:46:53;;;;;;;11.45;6.45;;;;;;;;;;4973423;28;20229;-79
2021/03/21 08:49:20;;;;;;;11.20;6.30;;;;;;;;;;4973626;28;20592;-79
2021/03/21 08:51:47;;;;;;;15.85;7.45;;;;;;;;;;4973583;28;20501;-80
2021/03/21 08:54:15;;;;;;;12.05;8.10;;;;;;;;;;4973612;28;20172;-79
2021/03/21 08:57:00;;;;;;;9.40;7.90;;;;;;;;;;4973042;28;20609;-80
2021/03/21 08:59:46;;;;;;;17.55;9.05;;;;;;;;;;4973489;28;20183;-80
2021/03/21 09:02:17;;;;;;;13.38;8.00;;;;;;;;;;4973458;28;20271;-80
2021/03/21 09:04:45;;;;;;;7.25;5.22;;;;;;;;;;4971684;28;20348;-80
2021/03/21 09:07:17;;;;;;;9.93;5.40;;;;;;;;;;4973396;28;20518;-80
2021/03/21 09:09:43;;;;;;;8.68;5.57;;;;;;;;;;4976256;28;20187;-79
2021/03/21 09:12:18;;;;;;;6.13;4.57;;;;;;;;;;4976991;28;20569;-81
2021/03/21 09:14:44;;;;;;;5.97;4.22;;;;;;;;;;4976681;28;20553;-77
2021/03/21 09:17:24;;;;;;;7.05;4.47;;;;;;;;;;4976887;28;20183;-80
2021/03/21 09:19:57;;;;;;;9.60;4.05;;;;;;;;;;4977031;28;20186;-80
2021/03/21 09:22:31;;;;;;;8.23;3.95;;;;;;;;;;4975744;28;20180;-80
2021/03/21 09:25:04;;;;;;;5.28;3.85;;;;;;;;;;4976419;28;20204;-80
2021/03/21 09:27:35;;;;;;;5.03;2.78;;;;;;;;;;4977079;28;20176;-79
2021/03/21 09:30:05;;;;;;;2.85;2.55;;;;;;;;;;4976847;28;20208;-80
2021/03/21 09:32:32;;;;;;;4.43;3.13;;;;;;;;;;4976803;28;20216;-79
2021/03/21 09:34:58;;;;;;;4.28;2.97;;;;;;;;;;4974767;28;20176;-79
2021/03/21 09:37:24;;;;;;;4.07;3.13;;;;;;;;;;4976269;28;20606;-76
2021/03/21 09:39:57;;;;;;;6.03;3.10;;;;;;;;;;4976357;28;20423;-78
2021/03/21 09:42:24;;;;;;;3.78;2.50;;;;;;;;;;4974383;28;20652;-79
2021/03/21 09:44:50;;;;;;;3.03;2.30;;;;;;;;;;4975551;28;20228;-80
2021/03/21 09:47:45;;;;;;;3.73;2.20;;;;;;;;;;4975850;28;20219;-79
2021/03/21 09:50:11;;;;;;;3.95;1.92;;;;;;;;;;4956404;29;20552;-79
2021/03/21 09:52:42;;;;;;;1.70;1.60;;;;;;;;;;4957107;29;20680;-79
2021/03/21 09:55:14;;;;;;;3.28;1.30;;;;;;;;;;4956449;28;20277;-79
2021/03/21 09:57:52;;;;;;;2.10;1.15;;;;;;;;;;4957008;29;20173;-79
2021/03/21 10:00:22;;;;;;;10.95;8.00;;;;;;;;;;4956996;28;20320;-78
2021/03/21 10:02:50;;;;;;;14.27;8.68;;;;;;;;;;4956829;28;20773;-78
2021/03/21 10:05:35;;;;;;;5.20;2.20;;;;;;;;;;4954932;28;20207;-80
2021/03/21 10:08:13;;;;;;;3.35;1.80;;;;;;;;;;4975230;28;20216;-80
2021/03/21 10:11:05;;;;;;;2.95;1.88;;;;;;;;;;4975936;28;20263;-79
2021/03/21 10:13:49;;;;;;;3.95;2.03;;;;;;;;;;4975541;28;20252;-79
2021/03/21 10:16:16;;;;;;;2.67;1.60;;;;;;;;;;4975650;28;20202;-80
2021/03/21 10:18:46;;;;;;;6.00;1.60;;;;;;;;;;4975906;28;20207;-79
2021/03/21 10:21:28;;;;;;;4.88;1.60;;;;;;;;;;4973098;28;20203;-80
2021/03/21 10:23:58;;;;;;;7.28;1.90;;;;;;;;;;4974761;28;20226;-79
2021/03/21 10:26:25;;;;;;;8.95;2.20;;;;;;;;;;4975579;28;20223;-79
2021/03/21 10:28:52;;;;;;;6.70;2.10;;;;;;;;;;4975605;28;20532;-80
2021/03/21 10:31:22;;;;;;;4.07;1.40;;;;;;;;;;4975521;28;20283;-79
2021/03/21 10:33:48;;;;;;;6.03;1.50;;;;;;;;;;4974856;28;20642;-79
2021/03/21 10:36:33;;;;;;;9.57;1.98;;;;;;;;;;4975084;28;20207;-79
2021/03/21 10:38:59;;;;;;;7.15;2.20;;;;;;;;;;4975745;28;20546;-79
2021/03/21 10:41:44;;;;;;;18.27;1.98;;;;;;;;;;4974106;28;20185;-80
2021/03/21 10:44:10;;;;;;;6.85;2.08;;;;;;;;;;4975529;28;20254;-80
2021/03/21 10:46:47;;;;;;;7.27;1.80;;;;;;;;;;4973680;28;20617;-80
2021/03/21 10:49:33;;;;;;;4.75;1.63;;;;;;;;;;4974240;28;20759;-80
2021/03/21 10:52:09;;;;;;;8.25;2.35;;;;;;;;;;4975276;28;20216;-80
2021/03/21 10:54:34;;;;;;;7.45;2.17;;;;;;;;;;4975023;28;20247;-79
2021/03/21 10:57:19;;;;;;;4.97;1.67;;;;;;;;;;4975188;28;20243;-79
2021/03/21 11:00:04;;;;;;;5.35;2.25;;;;;;;;;;4975051;28;20816;-80
2021/03/21 11:02:30;;;;;;;7.32;2.30;;;;;;;;;;4975135;28;20180;-79
2021/03/21 11:05:01;;;;;;;10.32;2.03;;;;;;;;;;4974828;28;20185;-79
2021/03/21 11:07:27;;;;;;;5.25;1.90;;;;;;;;;;4974006;28;20556;-79
2021/03/21 11:09:58;;;;;;;9.20;2.47;;;;;;;;;;4975172;28;20188;-79
2021/03/21 11:12:29;;;;;;;9.77;2.80;;;;;;;;;;4975246;28;20240;-80
2021/03/21 11:14:55;;;;;;;12.27;2.40;;;;;;;;;;4977109;28;20199;-80
2021/03/21 11:17:29;;;;;;;17.70;2.95;;;;;;;;;;4958713;28;20665;-80
2021/03/21 11:19:58;;;;;;;10.00;3.30;;;;;;;;;;4975020;28;20191;-80
2021/03/21 11:22:24;;;;;;;15.15;3.80;;;;;;;;;;4974846;28;20168;-81
2021/03/21 11:24:50;;;;;;;10.75;2.33;;;;;;;;;;4974725;28;20202;-80
2021/03/21 11:27:28;;;;;;;13.05;2.90;;;;;;;;;;4974780;28;20669;-80
2021/03/21 11:29:54;;;;;;;10.60;3.00;;;;;;;;;;4974773;28;20187;-79
2021/03/21 11:32:26;;;;;;;11.02;2.90;;;;;;;;;;4974776;28;20261;-80
2021/03/21 11:35:00;;;;;;;7.22;2.30;;;;;;;;;;4974331;28;20184;-80
2021/03/21 11:37:34;;;;;;;13.95;4.00;;;;;;;;;;4974866;28;20597;-80
2021/03/21 11:40:16;;;;;;;10.00;2.15;;;;;;;;;;4974626;28;20172;-80
2021/03/21 11:42:43;;;;;;;7.28;2.38;;;;;;;;;;4974426;28;20235;-80
2021/03/21 11:45:12;;;;;;;13.40;2.97;;;;;;;;;;4973868;28;20199;-80
2021/03/21 11:47:39;;;;;;;10.95;3.00;;;;;;;;;;4973125;28;20180;-80
2021/03/21 11:50:05;;;;;;;20.50;3.30;;;;;;;;;;4974191;28;20176;-80
2021/03/21 11:52:32;;;;;;;14.75;3.70;;;;;;;;;;4974115;28;20223;-79
2021/03/21 11:55:00;;;;;;;16.25;3.70;;;;;;;;;;4974052;28;20315;-80
2021/03/21 11:57:30;;;;;;;14.75;3.95;;;;;;;;;;4974226;28;20705;-81
2021/03/21 12:00:02;;;;;;;22.65;4.50;;;;;;;;;;4974036;28;20180;-80
2021/03/21 12:02:55;;;;;;;17.42;4.35;;;;;;;;;;4974154;28;20191;-79
2021/03/21 12:05:22;;;;;;;10.77;2.70;;;;;;;;;;4972831;28;20224;-80
2021/03/21 12:07:48;;;;;;;12.75;3.35;;;;;;;;;;4973929;28;20179;-80
2021/03/21 12:10:34;;;;;;;24.85;4.32;;;;;;;;;;4974222;28;20180;-80
2021/03/21 12:13:19;;;;;;;20.65;4.38;;;;;;;;;;4973920;28;20215;-79
2021/03/21 12:15:45;;;;;;;11.75;3.40;;;;;;;;;;4973316;28;20266;-80
2021/03/21 12:18:19;;;;;;;15.63;3.90;;;;;;;;;;4973572;28;20175;-79
2021/03/21 12:20:47;;;;;;;17.90;4.00;;;;;;;;;;4973109;28;20740;-80
2021/03/21 12:23:24;;;;;;;15.70;3.80;;;;;;;;;;4972047;28;20187;-79
2021/03/21 12:26:01;;;;;;;16.88;4.93;;;;;;;;;;4970893;28;20223;-80
2021/03/21 12:28:28;;;;;;;16.05;3.63;;;;;;;;;;4971593;28;20231;-79
2021/03/21 12:30:55;;;;;;;15.35;4.10;;;;;;;;;;4972675;28;20231;-80
2021/03/21 12:33:24;;;;;;;19.75;3.70;;;;;;;;;;4972620;28;20175;-79
2021/03/21 12:35:51;;;;;;;19.73;3.80;;;;;;;;;;4970776;28;20270;-80
2021/03/21 12:38:30;;;;;;;15.68;4.22;;;;;;;;;;4971067;28;20685;-80
2021/03/21 12:40:56;;;;;;;13.57;4.70;;;;;;;;;;4971054;28;20641;-79
2021/03/21 12:43:24;;;;;;;23.10;5.30;;;;;;;;;;4973929;28;20258;-79
2021/03/21 12:45:55;;;;;;;9.95;4.18;;;;;;;;;;4976753;28;20556;-78
2021/03/21 12:48:21;;;;;;;20.63;3.90;;;;;;;;;;4975032;28;20180;-80
2021/03/21 12:50:49;;;;;;;13.30;3.97;;;;;;;;;;4977005;28;20187;-79
2021/03/21 12:53:20;;;;;;;19.80;4.18;;;;;;;;;;4976689;28;20518;-79
2021/03/21 12:55:46;;;;;;;16.00;4.22;;;;;;;;;;4976323;28;20196;-78
2021/03/21 12:58:12;;;;;;;15.40;3.72;;;;;;;;;;4975424;28;20184;-79
2021/03/21 13:00:38;;;;;;;22.13;5.63;;;;;;;;;;4975646;28;20637;-80
2021/03/21 13:03:06;;;;;;;30.23;4.70;;;;;;;;;;4976969;28;20180;-80
2021/03/21 13:05:32;;;;;;;23.02;4.95;;;;;;;;;;4976567;28;20208;-79
2021/03/21 13:07:59;;;;;;;11.35;3.53;;;;;;;;;;4977126;28;20173;-81
2021/03/21 13:10:26;;;;;;;21.60;4.30;;;;;;;;;;4976767;28;20211;-80
2021/03/21 13:12:52;;;;;;;15.50;4.35;;;;;;;;;;4977013;28;20546;-79
2021/03/21 13:15:19;;;;;;;19.73;3.67;;;;;;;;;;4976607;28;20568;-79
2021/03/21 13:17:45;;;;;;;14.98;4.00;;;;;;;;;;4977180;28;20635;-80
2021/03/21 13:20:13;;;;;;;18.80;4.18;;;;;;;;;;4977173;28;20164;-79
2021/03/21 13:22:39;;;;;;;16.65;4.20;;;;;;;;;;4976851;28;20303;-79
2021/03/21 13:25:06;;;;;;;19.42;4.50;;;;;;;;;;4975497;28;20219;-79
2021/03/21 13:27:32;;;;;;;14.55;3.75;;;;;;;;;;4976830;28;20185;-80
2021/03/21 13:29:58;;;;;;;19.63;5.18;;;;;;;;;;4976845;28;20177;-80
2021/03/21 13:32:24;;;;;;;20.17;4.63;;;;;;;;;;4976634;28;20204;-80
2021/03/21 13:34:52;;;;;;;11.20;3.00;;;;;;;;;;4976441;28;20184;-79
2021/03/21 13:37:20;;;;;;;18.27;4.35;;;;;;;;;;4976563;28;20211;-78
2021/03/21 13:39:47;;;;;;;15.48;5.07;;;;;;;;;;4976551;28;20705;-79
2021/03/21 13:42:13;;;;;;;21.17;3.83;;;;;;;;;;4976625;28;20180;-78
2021/03/21 13:44:41;;;;;;;15.95;4.25;;;;;;;;;;4976150;28;20606;-80
2021/03/21 13:47:07;;;;;;;9.68;3.50;;;;;;;;;;4975155;28;20188;-80
2021/03/21 13:49:33;;;;;;;22.10;4.25;;;;;;;;;;4975319;28;20180;-80
2021/03/21 13:51:59;;;;;;;11.40;3.00;;;;;;;;;;4976419;28;20688;-79
2021/03/21 13:54:25;;;;;;;15.17;5.33;;;;;;;;;;4975858;28;20408;-79
2021/03/21 13:56:51;;;;;;;17.80;3.20;;;;;;;;;;4976037;28;20431;-79
2021/03/21 13:59:17;;;;;;;8.23;3.03;;;;;;;;;;4976262;28;20534;-79
2021/03/21 14:01:43;;;;;;;11.35;3.25;;;;;;;;;;4976347;28;20419;-79
2021/03/21 14:04:09;;;;;;;20.57;4.37;;;;;;;;;;4976359;28;20527;-78
2021/03/21 14:06:35;;;;;;;16.40;4.73;;;;;;;;;;4973888;28;20443;-79
2021/03/21 14:09:01;;;;;;;18.00;3.90;;;;;;;;;;4976055;28;20427;-80
2021/03/21 14:11:28;;;;;;;18.67;5.20;;;;;;;;;;4975762;28;20574;-78
2021/03/21 14:13:54;;;;;;;18.65;4.25;;;;;;;;;;4975922;28;20231;-79
2021/03/21 14:16:20;;;;;;;16.40;4.83;;;;;;;;;;4975519;28;20208;-80
2021/03/21 14:18:46;;;;;;;17.80;3.47;;;;;;;;;;4975754;28;20412;-79
2021/03/21 14:21:12;;;;;;;24.10;4.70;;;;;;;;;;4974430;28;20286;-79
2021/03/21 14:23:38;;;;;;;18.90;5.00;;;;;;;;;;4975666;28;20431;-79
2021/03/21 14:26:04;;;;;;;15.13;4.05;;;;;;;;;;4975404;28;20226;-77
2021/03/21 14:28:34;;;;;;;18.67;4.07;;;;;;;;;;4976191;28;20527;-78
2021/03/21 14:31:01;;;;;;;15.77;4.30;;;;;;;;;;4974442;28;20188;-79
2021/03/21 14:33:27;;;;;;;17.75;5.35;;;;;;;;;;4975365;28;20199;-77
2021/03/21 14:35:56;;;;;;;18.52;4.95;;;;;;;;;;4972039;28;20241;-78
2021/03/21 14:38:23;;;;;;;18.08;5.25;;;;;;;;;;4975515;28;20192;-79
2021/03/21 14:40:49;;;;;;;16.10;4.43;;;;;;;;;;4975463;28;20172;-78
2021/03/21 14:43:17;;;;;;;19.92;4.38;;;;;;;;;;4975401;28;20247;-79
2021/03/21 14:45:43;;;;;;;16.45;4.65;;;;;;;;;;4974902;28;20207;-81
2021/03/21 14:48:09;;;;;;;16.13;4.80;;;;;;;;;;4974960;28;20180;-78